createdAt,value
2022-10-18T10:24:34.807Z,21.10
2022-10-18T10:27:13.851Z,21.10
2022-10-18T10:29:47.083Z,21.10
2022-10-18T10:32:20.254Z,21.20
2022-10-18T10:34:47.454Z,21.20
2022-10-18T10:37:23.727Z,21.30
2022-10-18T10:40:18.273Z,21.30
2022-10-18T10:43:18.113Z,21.50
2022-10-18T10:45:57.534Z,21.50
2022-10-18T10:48:27.828Z,21.50
2022-10-18T10:51:10.133Z,21.50
2022-10-18T10:53:57.222Z,21.50
2022-10-18T10:56:29.712Z,21.60
2022-10-18T10:59:18.745Z,21.60
2022-10-18T11:01:49.826Z,21.70
2022-10-18T11:04:28.084Z,21.80
2022-10-18T11:07:13.857Z,21.80
2022-10-18T11:10:01.565Z,21.90
2022-10-18T11:12:52.802Z,21.90
2022-10-18T11:15:43.458Z,22.00
2022-10-18T11:18:22.147Z,22.10
2022-10-18T11:21:08.062Z,22.10
2022-10-18T11:23:42.081Z,22.00
2022-10-18T11:26:39.397Z,22.00
2022-10-18T11:29:44.442Z,22.00
2022-10-18T11:32:37.680Z,21.90
2022-10-18T11:35:19.901Z,22.00
2022-10-18T11:38:14.239Z,22.00
2022-10-18T11:41:12.080Z,22.00
2022-10-18T11:44:01.232Z,22.10
2022-10-18T11:46:50.069Z,22.10
2022-10-18T11:49:33.204Z,22.10
2022-10-18T11:52:19.074Z,22.00
2022-10-18T11:55:08.456Z,22.00
2022-10-18T11:58:06.144Z,22.10
2022-10-18T12:00:50.429Z,22.10
2022-10-18T12:03:43.630Z,22.20
2022-10-18T12:06:17.618Z,22.30
2022-10-18T12:08:56.586Z,22.30
2022-10-18T12:11:53.557Z,22.20
2022-10-18T12:14:45.955Z,22.30
2022-10-18T12:17:49.912Z,22.00
2022-10-18T12:20:20.816Z,22.10
2022-10-18T12:22:56.180Z,22.00
2022-10-18T12:25:24.075Z,22.00
2022-10-18T12:28:09.274Z,22.00
2022-10-18T12:30:56.600Z,22.00
2022-10-18T12:33:28.978Z,22.00
2022-10-18T12:36:27.233Z,21.90
2022-10-18T12:39:01.417Z,21.80
2022-10-18T12:41:35.687Z,21.80
2022-10-18T12:44:07.915Z,21.60
2022-10-18T12:46:53.802Z,21.60
2022-10-18T12:49:40.164Z,21.70
2022-10-18T12:52:28.962Z,21.90
2022-10-18T12:55:16.693Z,21.80
2022-10-18T12:57:53.617Z,21.70
2022-10-18T13:00:43.873Z,21.70
2022-10-18T13:03:13.840Z,21.70
2022-10-18T13:05:54.398Z,21.70
2022-10-18T13:08:28.112Z,21.80
2022-10-18T13:11:01.241Z,21.90
2022-10-18T13:13:40.835Z,22.00
2022-10-18T13:16:22.739Z,22.10
2022-10-18T13:19:24.471Z,22.00
2022-10-18T13:21:59.670Z,22.00
2022-10-18T13:24:35.531Z,21.80
2022-10-18T13:27:36.881Z,21.60
2022-10-18T13:30:54.619Z,21.40
2022-10-18T13:33:28.057Z,21.10
2022-10-18T13:36:02.298Z,21.10
2022-10-18T13:38:44.847Z,21.10
2022-10-18T13:41:13.385Z,21.10
2022-10-18T13:44:00.085Z,21.10
2022-10-18T13:46:36.948Z,21.10
2022-10-18T13:49:39.454Z,21.10
2022-10-18T13:52:15.410Z,21.10
2022-10-18T13:55:06.674Z,21.00
2022-10-18T13:57:45.198Z,21.00
2022-10-18T14:00:20.468Z,21.00
2022-10-18T14:03:26.710Z,21.00
2022-10-18T14:06:20.605Z,21.00
2022-10-18T14:09:09.493Z,20.80
2022-10-18T14:12:08.895Z,20.60
2022-10-18T14:14:52.400Z,20.50
2022-10-18T14:17:44.930Z,20.50
2022-10-18T14:20:36.894Z,20.50
2022-10-18T14:23:29.368Z,20.50
2022-10-18T14:26:19.101Z,20.40
2022-10-18T14:29:01.527Z,20.40
2022-10-18T14:31:30.049Z,20.30
2022-10-18T14:33:58.959Z,20.30
2022-10-18T14:36:29.657Z,20.20
2022-10-18T14:38:59.421Z,20.10
2022-10-18T14:41:38.554Z,20.00
2022-10-18T14:44:14.523Z,19.90
2022-10-18T14:46:45.151Z,19.90
2022-10-18T14:49:13.451Z,19.90
2022-10-18T14:51:43.218Z,19.80
2022-10-18T14:54:19.351Z,19.80
2022-10-18T14:56:46.796Z,19.70
2022-10-18T14:59:20.926Z,19.70
2022-10-18T15:01:57.455Z,19.60
2022-10-18T15:04:36.655Z,19.60
2022-10-18T15:07:06.667Z,19.60
2022-10-18T15:09:35.926Z,19.50
2022-10-18T15:12:05.581Z,19.40
2022-10-18T15:14:33.398Z,19.30
2022-10-18T15:17:03.602Z,19.30
2022-10-18T15:19:34.611Z,19.30
2022-10-18T15:22:31.390Z,19.20
2022-10-18T15:25:19.301Z,19.20
2022-10-18T15:27:56.466Z,19.00
2022-10-18T15:30:29.399Z,18.90
2022-10-18T15:32:59.512Z,18.80
2022-10-18T15:35:34.863Z,18.80
2022-10-18T15:38:14.560Z,18.80
2022-10-18T15:40:42.218Z,18.60
2022-10-18T15:43:24.486Z,18.60
2022-10-18T15:46:06.727Z,18.50
2022-10-18T15:48:35.747Z,18.40
2022-10-18T15:51:06.157Z,18.40
2022-10-18T15:53:43.796Z,18.40
2022-10-18T15:56:29.763Z,18.20
2022-10-18T15:58:58.602Z,18.20
2022-10-18T16:01:44.847Z,18.10
2022-10-18T16:04:36.508Z,18.10
2022-10-18T16:07:03.612Z,18.00
2022-10-18T16:09:30.477Z,17.90
2022-10-18T16:11:58.419Z,17.90
2022-10-18T16:14:26.237Z,17.90
2022-10-18T16:16:55.637Z,17.90
2022-10-18T16:19:22.917Z,17.80
2022-10-18T16:21:51.434Z,17.80
2022-10-18T16:24:18.617Z,17.70
2022-10-18T16:26:45.928Z,17.60
2022-10-18T16:29:24.353Z,17.60
2022-10-18T16:31:53.517Z,17.50
2022-10-18T16:34:20.515Z,17.50
2022-10-18T16:36:47.437Z,17.50
2022-10-18T16:39:16.366Z,17.40
2022-10-18T16:41:43.815Z,17.20
2022-10-18T16:44:11.131Z,17.20
2022-10-18T16:46:38.763Z,17.20
2022-10-18T16:49:06.010Z,17.10
2022-10-18T16:51:33.234Z,17.00
2022-10-18T16:54:00.045Z,17.00
2022-10-18T16:56:31.556Z,16.90
2022-10-18T16:59:00.191Z,16.90
2022-10-18T17:01:27.496Z,16.80
2022-10-18T17:03:55.459Z,16.80
2022-10-18T17:06:29.406Z,16.70
2022-10-18T17:08:57.339Z,16.70
2022-10-18T17:11:26.917Z,16.60
2022-10-18T17:13:54.132Z,16.60
2022-10-18T17:16:36.843Z,16.50
2022-10-18T17:19:06.577Z,16.50
2022-10-18T17:21:33.856Z,16.40
2022-10-18T17:24:06.022Z,16.40
2022-10-18T17:26:33.926Z,16.40
2022-10-18T17:29:04.354Z,16.40
2022-10-18T17:31:32.606Z,16.40
2022-10-18T17:34:02.058Z,16.40
2022-10-18T17:36:30.731Z,16.30
2022-10-18T17:38:58.292Z,16.30
2022-10-18T17:41:25.704Z,16.20
2022-10-18T17:43:52.546Z,16.20
2022-10-18T17:46:20.417Z,16.20
2022-10-18T17:48:47.786Z,16.10
2022-10-18T17:51:16.866Z,16.10
2022-10-18T17:53:44.207Z,16.10
2022-10-18T17:56:12.347Z,16.10
2022-10-18T17:58:39.784Z,16.10
2022-10-18T18:01:18.488Z,16.00
2022-10-18T18:03:47.633Z,16.00
2022-10-18T18:06:20.895Z,15.90
2022-10-18T18:08:49.126Z,15.90
2022-10-18T18:11:17.053Z,15.90
2022-10-18T18:13:44.141Z,15.80
2022-10-18T18:16:23.340Z,15.80
2022-10-18T18:18:52.882Z,15.80
2022-10-18T18:21:20.579Z,15.70
2022-10-18T18:23:48.379Z,15.70
2022-10-18T18:26:18.353Z,15.70
2022-10-18T18:28:45.523Z,15.60
2022-10-18T18:31:19.213Z,15.60
2022-10-18T18:33:46.316Z,15.60
2022-10-18T18:36:13.219Z,15.50
2022-10-18T18:38:42.862Z,15.50
2022-10-18T18:41:17.813Z,15.50
2022-10-18T18:43:49.409Z,15.40
2022-10-18T18:46:16.440Z,15.40
2022-10-18T18:48:43.318Z,15.30
2022-10-18T18:51:16.849Z,15.30
2022-10-18T18:53:45.736Z,15.20
2022-10-18T18:56:18.774Z,15.30
2022-10-18T18:58:46.748Z,15.20
2022-10-18T19:01:25.866Z,15.20
2022-10-18T19:06:26.818Z,15.10
2022-10-18T19:09:00.038Z,15.10
2022-10-18T19:11:28.121Z,15.00
2022-10-18T19:13:55.287Z,15.00
2022-10-18T19:16:27.706Z,15.00
